createdAt,value
2023-04-13T00:00:32.211Z,374.00
2023-04-13T00:01:32.172Z,376.90
2023-04-13T00:02:32.263Z,386.40
2023-04-13T00:03:32.330Z,391.70
2023-04-13T00:04:32.176Z,407.70
2023-04-13T00:05:32.172Z,402.30
2023-04-13T00:06:32.131Z,416.50
2023-04-13T00:07:32.115Z,412.70
2023-04-13T00:08:32.095Z,423.50
2023-04-13T00:09:32.117Z,427.40
2023-04-13T00:10:32.078Z,427.80
2023-04-13T00:11:32.204Z,435.60
2023-04-13T00:12:32.080Z,433.90
2023-04-13T00:13:32.045Z,438.30
2023-04-13T00:14:32.073Z,433.30
2023-04-13T00:15:32.005Z,437.20
2023-04-13T00:16:32.036Z,432.50
2023-04-13T00:17:31.985Z,434.00
2023-04-13T00:18:31.984Z,431.30
2023-04-13T00:19:32.007Z,433.90
2023-04-13T00:20:31.954Z,435.90
2023-04-13T00:21:31.927Z,434.70
2023-04-13T00:22:31.934Z,450.70
2023-04-13T00:23:31.957Z,456.40
2023-04-13T00:24:31.962Z,442.40
2023-04-13T00:25:31.889Z,459.90
2023-04-13T00:26:31.887Z,449.40
2023-04-13T00:27:31.876Z,459.30
2023-04-13T00:28:31.889Z,475.10
2023-04-13T00:29:31.914Z,468.50
2023-04-13T00:30:31.871Z,457.10
2023-04-13T00:31:31.884Z,468.00
2023-04-13T00:32:31.818Z,479.50
2023-04-13T00:33:31.810Z,470.70
2023-04-13T00:34:31.787Z,469.80
2023-04-13T00:35:31.823Z,453.90
2023-04-13T00:36:31.768Z,442.80
2023-04-13T00:37:31.749Z,435.20
2023-04-13T00:38:31.746Z,429.60
2023-04-13T00:39:31.733Z,432.40
2023-04-13T00:40:31.793Z,427.50
2023-04-13T00:41:31.717Z,429.10
2023-04-13T00:42:31.706Z,435.80
2023-04-13T00:43:31.685Z,435.10
2023-04-13T00:44:31.672Z,430.10
2023-04-13T00:45:31.713Z,416.70
2023-04-13T00:46:31.684Z,399.00
2023-04-13T00:47:31.680Z,396.40
2023-04-13T00:48:31.638Z,400.50
2023-04-13T00:49:31.622Z,388.30
2023-04-13T00:50:31.686Z,397.70
2023-04-13T00:51:31.617Z,416.20
2023-04-13T00:52:31.573Z,398.40
2023-04-13T00:53:31.574Z,406.10
2023-04-13T00:54:31.569Z,433.70
2023-04-13T00:55:31.592Z,435.40
2023-04-13T00:56:31.575Z,434.50
2023-04-13T00:57:31.526Z,449.20
2023-04-13T00:58:31.522Z,453.10
2023-04-13T00:59:31.502Z,443.20
2023-04-13T01:00:31.543Z,443.50
2023-04-13T01:01:31.501Z,420.10
2023-04-13T01:02:31.558Z,441.60
2023-04-13T01:03:31.529Z,426.00
2023-04-13T01:04:31.485Z,424.30
2023-04-13T01:05:31.492Z,444.70
2023-04-13T01:06:31.439Z,436.10
2023-04-13T01:07:31.438Z,453.90
2023-04-13T01:08:31.393Z,450.50
2023-04-13T01:09:31.374Z,437.80
2023-04-13T01:10:31.433Z,427.30
2023-04-13T01:11:31.370Z,440.70
2023-04-13T01:12:31.361Z,432.50
2023-04-13T01:13:31.340Z,428.40
2023-04-13T01:14:31.358Z,425.70
2023-04-13T01:15:31.364Z,439.50
2023-04-13T01:16:31.342Z,430.00
2023-04-13T01:17:31.316Z,431.00
2023-04-13T01:18:31.286Z,426.50
2023-04-13T01:19:31.261Z,434.80
2023-04-13T01:20:31.326Z,422.40
2023-04-13T01:21:31.258Z,442.20
2023-04-13T01:22:31.252Z,425.20
2023-04-13T01:23:31.232Z,411.40
2023-04-13T01:24:31.222Z,430.40
2023-04-13T01:25:31.252Z,419.00
2023-04-13T01:26:31.190Z,423.20
2023-04-13T01:27:31.179Z,430.60
2023-04-13T01:28:31.179Z,422.00
2023-04-13T01:29:31.160Z,413.40
2023-04-13T01:30:31.200Z,411.30
2023-04-13T01:31:31.204Z,412.10
2023-04-13T01:32:31.154Z,411.50
2023-04-13T01:33:31.102Z,456.10
2023-04-13T01:34:31.137Z,444.40
2023-04-13T01:35:31.145Z,451.80
2023-04-13T01:36:31.088Z,431.50
2023-04-13T01:37:31.075Z,437.10
2023-04-13T01:38:31.049Z,412.60
2023-04-13T01:39:31.048Z,426.20
2023-04-13T01:40:31.077Z,431.30
2023-04-13T01:41:31.035Z,398.00
2023-04-13T01:42:31.031Z,433.10
2023-04-13T01:43:31.013Z,427.40
2023-04-13T01:44:30.985Z,430.70
2023-04-13T01:45:31.019Z,460.60
2023-04-13T01:46:31.063Z,458.10
2023-04-13T01:47:31.008Z,451.80
2023-04-13T01:48:30.943Z,437.50
2023-04-13T01:49:30.936Z,450.80
2023-04-13T01:50:30.989Z,442.40
2023-04-13T01:51:30.970Z,440.20
2023-04-13T01:52:30.927Z,432.30
2023-04-13T01:53:30.920Z,442.10
2023-04-13T01:54:30.906Z,449.60
2023-04-13T01:55:30.993Z,418.70
2023-04-13T01:56:30.955Z,163.90
2023-04-13T01:57:30.857Z,439.90
2023-04-13T01:58:30.833Z,440.10
2023-04-13T01:59:30.838Z,443.90
2023-04-13T02:00:30.952Z,438.70
2023-04-13T02:01:30.789Z,458.20
2023-04-13T02:02:30.970Z,446.50
2023-04-13T02:03:30.925Z,445.70
2023-04-13T02:04:30.759Z,446.20
2023-04-13T02:05:30.778Z,141.40
2023-04-13T02:06:30.749Z,446.60
2023-04-13T02:07:30.739Z,484.80
2023-04-13T02:08:31.257Z,462.60
2023-04-13T02:09:30.717Z,455.20
2023-04-13T02:10:30.745Z,456.00
2023-04-13T02:11:30.755Z,453.50
2023-04-13T02:12:30.680Z,442.20
2023-04-13T02:13:30.655Z,437.70
2023-04-13T02:14:30.649Z,438.80
2023-04-13T02:15:30.681Z,437.00
2023-04-13T02:16:30.748Z,452.60
2023-04-13T02:17:30.626Z,441.50
2023-04-13T02:18:30.602Z,453.20
2023-04-13T02:19:30.617Z,430.10
2023-04-13T02:20:30.638Z,124.10
2023-04-13T02:21:30.565Z,472.40
2023-04-13T02:22:30.550Z,443.20
2023-04-13T02:23:30.548Z,450.00
2023-04-13T02:24:30.543Z,445.00
2023-04-13T02:25:30.564Z,446.10
2023-04-13T02:26:30.520Z,432.40
2023-04-13T02:27:30.490Z,397.70
2023-04-13T02:28:30.484Z,445.30
2023-04-13T02:29:30.501Z,295.20
2023-04-13T02:30:30.509Z,469.80
2023-04-13T02:31:30.481Z,455.10
2023-04-13T02:32:30.467Z,446.50
2023-04-13T02:33:30.443Z,430.30
2023-04-13T02:34:30.411Z,233.90
2023-04-13T02:35:30.451Z,449.50
2023-04-13T02:36:30.399Z,331.40
2023-04-13T02:37:30.383Z,478.90
2023-04-13T02:38:30.378Z,456.70
2023-04-13T02:39:30.351Z,455.50
2023-04-13T02:40:30.351Z,165.30
2023-04-13T02:41:30.379Z,471.30
2023-04-13T02:42:30.322Z,132.20
2023-04-13T02:43:30.313Z,486.90
2023-04-13T02:44:30.298Z,466.00
2023-04-13T02:45:30.295Z,436.10
2023-04-13T02:46:32.615Z,334.10
2023-04-13T02:47:30.294Z,475.80
2023-04-13T02:48:30.246Z,463.90
2023-04-13T02:49:30.238Z,246.20
2023-04-13T02:50:30.314Z,481.80
2023-04-13T02:51:30.258Z,435.80
2023-04-13T02:52:30.215Z,462.50
2023-04-13T02:53:30.191Z,436.80
2023-04-13T02:54:30.315Z,260.60
2023-04-13T02:55:30.176Z,193.80
2023-04-13T02:56:30.197Z,440.80
2023-04-13T02:57:30.155Z,394.20
2023-04-13T02:58:30.129Z,289.90
2023-04-13T02:59:30.130Z,404.90
2023-04-13T03:00:30.114Z,379.10
2023-04-13T03:01:30.212Z,317.20
2023-04-13T03:02:30.329Z,370.80
2023-04-13T03:03:30.177Z,373.40
2023-04-13T03:04:30.135Z,258.70
2023-04-13T03:05:30.045Z,370.80
2023-04-13T03:06:30.087Z,130.30
2023-04-13T03:07:30.041Z,379.20
2023-04-13T03:08:30.016Z,194.50
2023-04-13T03:09:30.016Z,378.90
2023-04-13T03:10:30.040Z,394.90
2023-04-13T03:11:29.978Z,349.70
2023-04-13T03:12:29.974Z,391.10
2023-04-13T03:13:29.965Z,399.10
2023-04-13T03:14:30.097Z,400.70
2023-04-13T03:15:29.986Z,396.60
2023-04-13T03:16:29.943Z,315.20
2023-04-13T03:17:29.966Z,421.80
2023-04-13T03:18:29.899Z,185.80
2023-04-13T03:19:29.977Z,473.90
2023-04-13T03:20:29.928Z,462.50
2023-04-13T03:21:29.878Z,439.30
2023-04-13T03:22:29.868Z,409.40
2023-04-13T03:23:29.846Z,256.00
2023-04-13T03:24:29.837Z,448.90
2023-04-13T03:25:31.308Z,431.20
2023-04-13T03:26:29.798Z,450.90
2023-04-13T03:27:29.804Z,425.70
2023-04-13T03:28:29.783Z,434.30
2023-04-13T03:29:29.785Z,442.00
2023-04-13T03:30:29.815Z,472.40
2023-04-13T03:31:29.798Z,547.90
2023-04-13T03:32:29.764Z,532.60
2023-04-13T03:33:29.724Z,475.90
2023-04-13T03:34:29.705Z,466.10
2023-04-13T03:35:29.753Z,466.60
2023-04-13T03:36:29.701Z,447.90
2023-04-13T03:37:29.695Z,948.80
2023-04-13T03:38:29.676Z,436.20
2023-04-13T03:39:29.675Z,441.00
2023-04-13T03:40:29.704Z,402.50
2023-04-13T03:41:29.652Z,999.90
2023-04-13T03:42:29.637Z,390.40
2023-04-13T03:43:29.624Z,370.80
2023-04-13T03:44:29.602Z,999.90
2023-04-13T03:45:29.635Z,480.20
2023-04-13T03:46:29.619Z,425.00
2023-04-13T03:47:29.599Z,437.70
2023-04-13T03:48:29.571Z,412.70
2023-04-13T03:49:29.589Z,359.50
2023-04-13T03:50:29.600Z,346.10
2023-04-13T03:51:29.534Z,324.10
2023-04-13T03:52:29.504Z,371.20
2023-04-13T03:53:29.511Z,362.20
2023-04-13T03:54:29.492Z,408.90
2023-04-13T03:55:29.531Z,339.90
2023-04-13T03:56:29.473Z,356.40
2023-04-13T03:57:29.460Z,335.10
2023-04-13T03:58:29.456Z,339.10
2023-04-13T03:59:29.432Z,813.70
2023-04-13T04:00:29.458Z,304.20
2023-04-13T04:01:29.422Z,307.60
2023-04-13T04:02:29.619Z,999.90
2023-04-13T04:03:29.517Z,385.40
2023-04-13T04:04:29.400Z,446.20
2023-04-13T04:05:29.411Z,329.10
2023-04-13T04:06:29.348Z,299.70
2023-04-13T04:07:29.358Z,291.10
2023-04-13T04:08:29.333Z,303.90
2023-04-13T04:09:29.306Z,317.90
2023-04-13T04:10:29.353Z,317.90
2023-04-13T04:11:29.309Z,301.00
2023-04-13T04:12:29.309Z,325.70
2023-04-13T04:13:29.295Z,317.60
2023-04-13T04:14:29.269Z,309.70
2023-04-13T04:15:29.299Z,348.10
2023-04-13T04:16:29.304Z,326.60
2023-04-13T04:17:29.259Z,330.90
2023-04-13T04:18:29.220Z,425.40
2023-04-13T04:19:29.216Z,609.60
2023-04-13T04:20:29.222Z,999.90
2023-04-13T04:21:29.187Z,448.10
2023-04-13T04:22:29.172Z,377.90
2023-04-13T04:23:29.155Z,412.60
2023-04-13T04:24:29.150Z,259.10
2023-04-13T04:25:29.178Z,493.80
2023-04-13T04:26:29.110Z,999.90
2023-04-13T04:27:29.126Z,999.90
2023-04-13T04:28:29.098Z,981.40
2023-04-13T04:29:29.082Z,555.80
2023-04-13T04:30:29.109Z,559.00
2023-04-13T04:31:29.060Z,999.90
2023-04-13T04:32:29.177Z,578.60
2023-04-13T04:33:29.048Z,463.70
2023-04-13T04:34:29.065Z,369.40
2023-04-13T04:35:29.071Z,613.70
2023-04-13T04:36:29.017Z,442.70
2023-04-13T04:37:28.990Z,383.30
2023-04-13T04:38:28.978Z,259.80
2023-04-13T04:39:28.965Z,999.90
2023-04-13T04:40:29.012Z,219.90
2023-04-13T04:41:28.965Z,228.20
2023-04-13T04:42:28.961Z,389.10
2023-04-13T04:43:28.964Z,999.90
2023-04-13T04:44:28.911Z,332.90
2023-04-13T04:45:28.995Z,387.40
2023-04-13T04:46:28.891Z,332.10
2023-04-13T04:47:28.906Z,524.00
2023-04-13T04:48:28.883Z,314.20
2023-04-13T04:49:28.854Z,393.30
2023-04-13T04:50:28.884Z,999.90
2023-04-13T04:51:28.979Z,999.90
2023-04-13T04:52:28.817Z,416.60
2023-04-13T04:53:28.809Z,999.90
2023-04-13T04:54:28.798Z,446.90
2023-04-13T04:55:28.834Z,395.10
2023-04-13T04:56:28.766Z,440.70
2023-04-13T04:57:29.737Z,999.90
2023-04-13T04:58:28.743Z,655.90
2023-04-13T04:59:28.732Z,999.90
2023-04-13T05:00:28.772Z,999.90
2023-04-13T05:01:28.743Z,999.90
2023-04-13T05:02:28.775Z,999.90
2023-04-13T05:03:28.729Z,999.90
2023-04-13T05:04:28.686Z,999.90
2023-04-13T05:05:28.737Z,271.60
2023-04-13T05:06:28.660Z,539.30
2023-04-13T05:07:28.654Z,999.90
2023-04-13T05:08:28.685Z,999.90
2023-04-13T05:09:28.608Z,999.90
2023-04-13T05:10:28.641Z,999.90
2023-04-13T05:11:28.602Z,999.90
2023-04-13T05:12:28.580Z,999.90
2023-04-13T05:13:28.575Z,999.90
2023-04-13T05:14:28.563Z,335.00
2023-04-13T05:15:28.590Z,999.90
2023-04-13T05:16:28.578Z,979.40
2023-04-13T05:17:28.525Z,999.90
2023-04-13T05:18:28.554Z,999.90
2023-04-13T05:19:28.506Z,999.90
2023-04-13T05:20:28.537Z,851.80
2023-04-13T05:21:28.500Z,999.90
2023-04-13T05:22:28.466Z,773.30
2023-04-13T05:23:28.467Z,999.90
2023-04-13T05:24:28.461Z,999.90
2023-04-13T05:25:28.481Z,325.00
2023-04-13T05:26:28.453Z,999.90
2023-04-13T05:27:28.407Z,999.90
2023-04-13T05:28:28.380Z,999.90
2023-04-13T05:29:28.374Z,999.90
2023-04-13T05:30:28.376Z,999.90
2023-04-13T05:31:28.464Z,999.90
2023-04-13T05:32:28.438Z,999.90
2023-04-13T05:33:28.349Z,999.90
2023-04-13T05:34:28.326Z,999.90
2023-04-13T05:35:28.329Z,999.90
2023-04-13T05:36:28.367Z,999.90
2023-04-13T05:37:28.336Z,999.90
2023-04-13T05:38:28.281Z,999.90
2023-04-13T05:39:28.298Z,999.90
2023-04-13T05:40:28.277Z,999.90
2023-04-13T05:41:28.309Z,991.10
2023-04-13T05:42:28.239Z,999.90
2023-04-13T05:43:28.224Z,999.90
2023-04-13T05:44:28.224Z,999.90
2023-04-13T05:45:28.224Z,490.60
2023-04-13T05:46:28.272Z,878.30
2023-04-13T05:47:28.200Z,999.90
2023-04-13T05:48:28.172Z,813.00
2023-04-13T05:49:28.171Z,999.90
2023-04-13T05:50:28.139Z,999.90
2023-04-13T05:51:28.180Z,999.90
2023-04-13T05:52:28.138Z,999.90
2023-04-13T05:53:28.104Z,999.90
2023-04-13T05:54:28.077Z,999.90
2023-04-13T05:55:28.074Z,999.90
2023-04-13T05:56:28.113Z,999.90
2023-04-13T05:57:28.058Z,999.90
2023-04-13T05:58:28.048Z,999.90
2023-04-13T05:59:28.082Z,999.90
2023-04-13T06:00:28.066Z,999.90
2023-04-13T06:01:28.069Z,999.90
2023-04-13T06:02:28.133Z,999.90
2023-04-13T06:03:28.284Z,999.90
2023-04-13T06:04:28.255Z,999.90
2023-04-13T06:05:28.003Z,999.90
2023-04-13T06:06:28.001Z,999.90
2023-04-13T06:07:27.990Z,999.90
2023-04-13T06:08:29.304Z,607.80
2023-04-13T06:09:27.918Z,708.80
2023-04-13T06:10:27.911Z,999.90
2023-04-13T06:11:27.952Z,999.90
2023-04-13T06:12:27.886Z,999.90
2023-04-13T06:13:27.875Z,999.90
2023-04-13T06:14:27.856Z,999.90
2023-04-13T06:15:27.901Z,999.90
2023-04-13T06:16:27.895Z,999.90
2023-04-13T06:17:27.849Z,999.90
2023-04-13T06:18:27.811Z,999.90
2023-04-13T06:19:28.985Z,999.90
2023-04-13T06:20:27.830Z,999.90
2023-04-13T06:21:27.771Z,999.90
2023-04-13T06:22:27.753Z,999.90
2023-04-13T06:23:27.748Z,999.90
2023-04-13T06:24:27.764Z,999.90
2023-04-13T06:25:27.786Z,999.90
2023-04-13T06:26:27.744Z,999.90
2023-04-13T06:27:27.715Z,999.90
2023-04-13T06:28:27.703Z,999.90
2023-04-13T06:29:27.692Z,999.90
2023-04-13T06:30:27.736Z,999.90
2023-04-13T06:31:28.034Z,999.90
2023-04-13T06:32:27.660Z,999.90
2023-04-13T06:33:27.654Z,999.90
2023-04-13T06:34:27.650Z,999.90
2023-04-13T06:35:27.675Z,999.90
2023-04-13T06:36:27.606Z,999.90
2023-04-13T06:37:27.601Z,999.90
2023-04-13T06:38:27.586Z,999.90
2023-04-13T06:39:28.770Z,999.90
2023-04-13T06:40:27.639Z,999.90
2023-04-13T06:41:27.561Z,999.90
2023-04-13T06:42:27.557Z,999.90
2023-04-13T06:43:29.821Z,999.90
2023-04-13T06:44:27.497Z,999.90
2023-04-13T06:45:27.555Z,999.90
2023-04-13T06:46:27.511Z,999.90
2023-04-13T06:47:27.573Z,999.90
2023-04-13T06:48:27.451Z,999.90
2023-04-13T06:49:27.446Z,999.90
2023-04-13T06:50:27.522Z,999.90
2023-04-13T06:51:27.421Z,999.90
2023-04-13T06:52:27.426Z,999.90
2023-04-13T06:53:27.410Z,999.90
2023-04-13T06:54:27.415Z,999.90
2023-04-13T06:55:27.454Z,999.90
2023-04-13T06:56:27.397Z,999.90
2023-04-13T06:57:27.389Z,999.90
2023-04-13T06:58:27.354Z,999.90
2023-04-13T06:59:27.336Z,999.90
2023-04-13T07:00:30.127Z,999.90
2023-04-13T07:01:27.390Z,999.90
2023-04-13T07:02:27.513Z,999.90
2023-04-13T07:03:27.399Z,999.90
2023-04-13T07:04:29.673Z,999.90
2023-04-13T07:05:27.327Z,999.90
2023-04-13T07:06:27.257Z,999.90
2023-04-13T07:07:27.256Z,999.90
2023-04-13T07:08:27.260Z,999.90
2023-04-13T07:09:27.254Z,999.90
2023-04-13T07:10:27.386Z,999.90
2023-04-13T07:11:27.203Z,999.90
2023-04-13T07:12:27.200Z,999.90
2023-04-13T07:13:27.180Z,999.90
2023-04-13T07:14:27.193Z,999.90
2023-04-13T07:15:27.257Z,999.90
2023-04-13T07:16:27.250Z,999.90
2023-04-13T07:17:27.148Z,999.90
2023-04-13T07:18:27.104Z,999.90
2023-04-13T07:19:27.091Z,999.90
2023-04-13T07:20:27.190Z,999.90
2023-04-13T07:21:27.147Z,999.90
2023-04-13T07:22:27.113Z,999.90
2023-04-13T07:23:27.062Z,999.90
2023-04-13T07:24:29.399Z,999.90
2023-04-13T07:25:27.100Z,999.90
2023-04-13T07:26:27.040Z,999.90
2023-04-13T07:27:27.034Z,999.90
2023-04-13T07:28:27.044Z,999.90
2023-04-13T07:29:27.005Z,999.90
2023-04-13T07:30:27.051Z,999.90
2023-04-13T07:31:27.021Z,999.90
2023-04-13T07:32:30.793Z,999.90
2023-04-13T07:33:26.992Z,999.90
2023-04-13T07:34:27.053Z,999.90
2023-04-13T07:35:27.028Z,999.90
2023-04-13T07:36:26.901Z,999.90
2023-04-13T07:37:26.903Z,999.90
2023-04-13T07:38:26.942Z,999.90
2023-04-13T07:39:26.878Z,999.90
2023-04-13T07:40:26.917Z,999.90
2023-04-13T07:41:26.880Z,999.90
2023-04-13T07:42:26.850Z,999.90
2023-04-13T07:43:26.874Z,999.90
2023-04-13T07:44:26.818Z,999.90
2023-04-13T07:45:26.850Z,999.90
2023-04-13T07:46:26.888Z,999.90
2023-04-13T07:47:26.873Z,291.20
2023-04-13T07:48:26.787Z,203.30
2023-04-13T07:49:26.793Z,186.30
2023-04-13T07:50:26.803Z,560.90
2023-04-13T07:51:26.746Z,828.40
2023-04-13T07:52:26.746Z,930.70
2023-04-13T07:53:26.724Z,999.90
2023-04-13T07:54:26.743Z,999.90
2023-04-13T07:55:26.845Z,999.90
2023-04-13T07:56:26.726Z,999.90
2023-04-13T07:57:26.773Z,392.20
2023-04-13T07:58:26.688Z,322.50
2023-04-13T07:59:26.646Z,339.00
2023-04-13T08:00:26.713Z,308.10
2023-04-13T08:01:26.635Z,193.90
2023-04-13T08:02:26.703Z,65.40
2023-04-13T08:03:26.700Z,70.30
2023-04-13T08:04:26.811Z,76.20
2023-04-13T08:05:26.750Z,74.30
2023-04-13T08:06:26.579Z,78.90
2023-04-13T08:07:26.640Z,64.20
2023-04-13T08:08:26.563Z,68.00
2023-04-13T08:09:26.576Z,66.60
2023-04-13T08:10:26.654Z,61.20
2023-04-13T08:11:26.628Z,63.20
2023-04-13T08:12:26.521Z,47.50
2023-04-13T08:13:26.492Z,31.00
2023-04-13T08:14:26.466Z,32.50
2023-04-13T08:15:26.519Z,33.20
2023-04-13T08:16:26.536Z,35.90
2023-04-13T08:17:26.577Z,38.30
2023-04-13T08:18:26.440Z,40.40
2023-04-13T08:19:26.419Z,34.90
2023-04-13T08:20:26.461Z,36.40
2023-04-13T08:21:26.431Z,39.20
2023-04-13T08:22:26.393Z,36.30
2023-04-13T08:23:26.377Z,43.10
2023-04-13T08:24:26.382Z,35.20
2023-04-13T08:25:26.426Z,44.90
2023-04-13T08:26:26.345Z,32.10
2023-04-13T08:27:26.358Z,25.40
2023-04-13T08:28:26.337Z,20.20
2023-04-13T08:29:26.363Z,23.80
2023-04-13T08:30:26.352Z,24.60
2023-04-13T08:31:26.305Z,26.50
2023-04-13T08:32:26.303Z,23.40
2023-04-13T08:33:26.251Z,23.30
2023-04-13T08:34:26.252Z,22.90
2023-04-13T08:35:26.299Z,22.60
2023-04-13T08:36:26.278Z,20.00
2023-04-13T08:37:26.234Z,23.70
2023-04-13T08:38:26.219Z,20.30
2023-04-13T08:39:26.170Z,20.10
2023-04-13T08:40:26.236Z,21.20
2023-04-13T08:41:26.147Z,22.10
2023-04-13T08:42:27.003Z,23.40
2023-04-13T08:43:26.132Z,21.00
2023-04-13T08:44:26.155Z,19.50
2023-04-13T08:45:26.191Z,20.50
2023-04-13T08:46:26.214Z,20.50
2023-04-13T08:47:26.115Z,21.30
2023-04-13T08:48:26.116Z,28.00
2023-04-13T08:49:26.101Z,24.70
2023-04-13T08:50:26.140Z,27.10
2023-04-13T08:51:26.074Z,29.30
2023-04-13T08:52:26.048Z,18.50
2023-04-13T08:53:26.056Z,17.10
2023-04-13T08:54:26.031Z,12.80
2023-04-13T08:55:26.059Z,18.70
2023-04-13T08:56:37.645Z,18.90
2023-04-13T08:57:27.023Z,23.90
2023-04-13T08:58:25.984Z,23.50
2023-04-13T08:59:25.983Z,26.80
2023-04-13T09:00:26.005Z,25.30
2023-04-13T09:01:25.991Z,25.70
2023-04-13T09:02:26.499Z,23.50
2023-04-13T09:03:26.086Z,21.60
2023-04-13T09:04:26.090Z,22.50
2023-04-13T09:05:25.941Z,14.70
2023-04-13T09:06:25.926Z,15.20
2023-04-13T09:07:25.931Z,16.70
2023-04-13T09:08:26.836Z,15.20
2023-04-13T09:09:25.842Z,16.30
2023-04-13T09:10:25.939Z,15.60
2023-04-13T09:11:25.820Z,52.00
2023-04-13T09:12:25.818Z,48.80
2023-04-13T09:13:26.640Z,45.30
2023-04-13T09:14:25.792Z,20.80
2023-04-13T09:15:25.925Z,16.80
2023-04-13T09:16:25.815Z,20.00
2023-04-13T09:17:26.037Z,19.40
2023-04-13T09:18:25.719Z,18.30
2023-04-13T09:19:25.730Z,18.70
2023-04-13T09:20:25.836Z,18.50
2023-04-13T09:21:25.750Z,17.90
2023-04-13T09:22:25.703Z,30.50
2023-04-13T09:23:25.682Z,29.60
2023-04-13T09:24:25.679Z,24.40
2023-04-13T09:25:25.735Z,27.80
2023-04-13T09:26:25.652Z,24.90
2023-04-13T09:27:25.628Z,26.90
2023-04-13T09:28:25.671Z,26.80
2023-04-13T09:29:25.620Z,21.90
2023-04-13T09:30:25.693Z,24.80
2023-04-13T09:31:25.627Z,22.90
2023-04-13T09:32:25.670Z,18.80
2023-04-13T09:33:25.592Z,19.20
2023-04-13T09:34:25.567Z,20.20
2023-04-13T09:35:25.638Z,17.40
2023-04-13T09:36:25.541Z,16.00
2023-04-13T09:37:25.544Z,16.00
2023-04-13T09:38:25.526Z,16.40
2023-04-13T09:39:25.521Z,16.50
2023-04-13T09:40:25.577Z,17.40
2023-04-13T09:41:25.502Z,20.00
2023-04-13T09:42:25.522Z,18.20
2023-04-13T09:43:25.485Z,45.60
2023-04-13T09:44:25.469Z,42.60
2023-04-13T09:45:25.503Z,37.90
2023-04-13T09:46:25.488Z,39.80
2023-04-13T09:47:25.471Z,11.30
2023-04-13T09:48:25.424Z,10.20
2023-04-13T09:49:25.395Z,9.80
2023-04-13T09:50:25.431Z,9.10
2023-04-13T09:51:25.381Z,9.20
2023-04-13T09:52:25.375Z,9.20
2023-04-13T09:53:25.337Z,9.80
2023-04-13T09:54:25.328Z,10.70
2023-04-13T09:55:25.370Z,10.40
2023-04-13T09:56:25.331Z,10.40
2023-04-13T09:57:25.283Z,11.30
2023-04-13T09:58:25.514Z,11.50
2023-04-13T09:59:25.276Z,11.40
2023-04-13T10:00:25.348Z,10.40
2023-04-13T10:01:25.325Z,10.60
2023-04-13T10:02:25.333Z,10.30
2023-04-13T10:03:25.283Z,10.60
2023-04-13T10:04:25.307Z,10.90
2023-04-13T10:05:26.869Z,10.60
2023-04-13T10:06:25.237Z,10.70
2023-04-13T10:07:25.180Z,11.10
2023-04-13T10:08:36.842Z,11.40
2023-04-13T10:09:26.181Z,10.70
2023-04-13T10:10:25.206Z,11.00
2023-04-13T10:11:25.175Z,11.90
2023-04-13T10:12:25.122Z,12.20
2023-04-13T10:13:25.137Z,12.90
2023-04-13T10:14:25.103Z,12.70
2023-04-13T10:15:25.159Z,13.40
2023-04-13T10:16:25.118Z,11.70
2023-04-13T10:17:25.250Z,11.70
2023-04-13T10:18:25.139Z,12.70
2023-04-13T10:19:25.061Z,14.20
2023-04-13T10:20:27.236Z,16.20
2023-04-13T10:21:25.039Z,18.20
2023-04-13T10:22:25.040Z,20.20
2023-04-13T10:23:25.014Z,20.20
2023-04-13T10:24:24.995Z,31.30
2023-04-13T10:25:32.618Z,31.80
2023-04-13T10:26:25.971Z,32.60
2023-04-13T10:27:24.987Z,30.40
2023-04-13T10:28:26.284Z,27.60
2023-04-13T10:29:24.907Z,26.60
2023-04-13T10:30:24.950Z,26.50
2023-04-13T10:31:24.921Z,27.10
2023-04-13T10:32:24.971Z,26.90
2023-04-13T10:33:24.887Z,30.80
2023-04-13T10:34:24.885Z,30.40
2023-04-13T10:35:24.919Z,28.00
2023-04-13T10:36:24.868Z,30.80
2023-04-13T10:37:24.848Z,28.90
2023-04-13T10:38:24.866Z,8.80
2023-04-13T10:39:24.806Z,22.10
2023-04-13T10:40:24.831Z,25.00
2023-04-13T10:41:24.860Z,27.30
2023-04-13T10:42:24.785Z,24.10
2023-04-13T10:43:24.767Z,27.30
2023-04-13T10:44:24.751Z,30.70
2023-04-13T10:45:24.775Z,28.60
2023-04-13T10:46:24.829Z,34.80
2023-04-13T10:47:26.734Z,36.70
2023-04-13T10:48:24.715Z,31.20
2023-04-13T10:49:24.681Z,33.20
2023-04-13T10:50:24.793Z,34.10
2023-04-13T10:51:24.695Z,23.10
2023-04-13T10:52:24.637Z,41.40
2023-04-13T10:53:26.525Z,33.80
2023-04-13T10:54:24.623Z,38.70
2023-04-13T10:55:24.652Z,39.40
2023-04-13T10:56:24.588Z,39.30
2023-04-13T10:57:24.576Z,41.40
2023-04-13T10:58:24.585Z,8.00
2023-04-13T10:59:24.573Z,31.60
2023-04-13T11:00:34.658Z,31.70
2023-04-13T11:01:25.527Z,36.00
2023-04-13T11:02:24.643Z,42.80
2023-04-13T11:03:24.638Z,29.30
2023-04-13T11:04:24.596Z,47.80
2023-04-13T11:05:24.568Z,41.90
2023-04-13T11:06:24.541Z,42.50
2023-04-13T11:07:24.471Z,46.50
2023-04-13T11:08:24.446Z,40.20
2023-04-13T11:09:24.453Z,33.60
2023-04-13T11:10:24.475Z,43.00
2023-04-13T11:11:24.488Z,8.40
2023-04-13T11:12:24.551Z,14.30
2023-04-13T11:13:24.432Z,12.00
2023-04-13T11:14:24.414Z,18.60
2023-04-13T11:15:24.442Z,23.90
2023-04-13T11:16:24.453Z,21.40
2023-04-13T11:17:24.575Z,22.60
2023-04-13T11:18:24.405Z,13.50
2023-04-13T11:19:24.350Z,14.30
2023-04-13T11:20:24.402Z,15.50
2023-04-13T11:21:24.300Z,16.90
2023-04-13T11:22:24.422Z,16.40
2023-04-13T11:23:24.527Z,16.70
2023-04-13T11:24:24.265Z,16.30
2023-04-13T11:25:24.288Z,14.70
2023-04-13T11:26:24.332Z,13.50
2023-04-13T11:27:24.295Z,12.20
2023-04-13T11:28:24.259Z,10.40
2023-04-13T11:29:24.207Z,9.90
2023-04-13T11:30:24.247Z,12.60
2023-04-13T11:31:24.265Z,11.90
2023-04-13T11:32:24.347Z,12.60
2023-04-13T11:33:24.164Z,12.30
2023-04-13T11:34:24.198Z,14.10
2023-04-13T11:35:24.226Z,13.40
2023-04-13T11:36:24.177Z,11.50
2023-04-13T11:37:24.136Z,10.70
2023-04-13T11:38:24.213Z,10.50
2023-04-13T11:39:24.129Z,10.00
2023-04-13T11:40:24.154Z,9.00
2023-04-13T11:41:24.090Z,8.40
2023-04-13T11:42:24.082Z,7.70
2023-04-13T11:43:24.052Z,8.90
2023-04-13T11:44:24.048Z,7.90
2023-04-13T11:45:24.092Z,8.20
2023-04-13T11:46:24.110Z,8.20
2023-04-13T11:47:24.060Z,9.10
2023-04-13T11:48:24.029Z,9.10
2023-04-13T11:49:23.990Z,9.50
2023-04-13T11:50:24.030Z,9.70
2023-04-13T11:51:24.024Z,10.00
2023-04-13T11:52:23.979Z,9.80
2023-04-13T11:53:23.957Z,10.20
2023-04-13T11:54:23.939Z,10.60
2023-04-13T11:55:24.314Z,10.00
2023-04-13T11:56:23.912Z,9.50
2023-04-13T11:57:23.905Z,9.40
2023-04-13T11:58:23.943Z,9.00
2023-04-13T11:59:23.869Z,8.10
2023-04-13T12:00:23.905Z,7.20
2023-04-13T12:01:27.139Z,13.70
2023-04-13T12:02:29.501Z,13.60
2023-04-13T12:03:38.334Z,12.00
2023-04-13T12:05:24.171Z,10.30
2023-04-13T12:06:24.389Z,13.70
2023-04-13T12:07:24.319Z,18.20
2023-04-13T12:08:24.585Z,11.90
2023-04-13T12:09:36.964Z,11.60
2023-04-13T12:10:26.752Z,11.90
2023-04-13T12:11:41.521Z,11.60
2023-04-13T12:13:35.551Z,15.80
2023-04-13T12:14:49.883Z,15.60
2023-04-13T12:15:42.091Z,14.30
2023-04-13T12:16:54.861Z,15.80
2023-04-13T12:17:38.378Z,17.00
2023-04-13T12:18:28.869Z,14.90
2023-04-13T12:19:27.462Z,17.40
2023-04-13T12:20:23.843Z,16.30
2023-04-13T12:21:23.888Z,14.00
2023-04-13T12:22:23.936Z,15.30
2023-04-13T12:23:24.485Z,14.80
2023-04-13T12:24:24.473Z,15.60
2023-04-13T12:25:24.921Z,15.80
2023-04-13T12:26:59.130Z,14.30
2023-04-13T12:27:25.430Z,15.30
2023-04-13T12:28:23.543Z,14.00
2023-04-13T12:29:23.609Z,13.40
2023-04-13T12:30:23.563Z,13.30
2023-04-13T12:31:23.656Z,12.60
2023-04-13T12:32:23.513Z,11.40
2023-04-13T12:33:23.510Z,9.80
2023-04-13T12:34:23.493Z,10.40
2023-04-13T12:35:23.540Z,11.20
2023-04-13T12:36:23.460Z,11.00
2023-04-13T12:37:23.441Z,10.70
2023-04-13T12:38:23.459Z,10.60
2023-04-13T12:39:23.415Z,10.60
2023-04-13T12:40:23.493Z,10.10